Phoenix, Arizona
Current Conditions -  °F | °C
As of 12:51 AM on Saturday 25 Oct 2014 (Local Time) from KPHX Reporting Station
Clear Clear  
Wind Chill: 77°   Ceiling: Unl
Heat Index: 78°   Visibility: 10mi
Dew Point: 50°   Wind: 6mph
Humidity: 39%   Direction: 100°E
Pressure: 29.98"   Gusts: NA
Location:  33.45°N, 112.08°W
Report Text: KPHX 250751Z 10005KT 10SM CLR 25/10 A2998 RMK AO2 SLP135 T02500100
Loading
Personal Weather Stations






























Interactive Weather Map New forecast layout! Learn more

10-Day Weather Forecast

Advertisements
Track Severe Weather on mobile